createdAt,value
2023-05-18T00:01:58.679Z,16.50
2023-05-18T00:04:28.608Z,16.08
2023-05-18T00:07:05.363Z,17.17
2023-05-18T00:09:39.299Z,16.00
2023-05-18T00:12:10.757Z,15.88
2023-05-18T00:14:40.387Z,15.35
2023-05-18T00:17:10.150Z,15.38
2023-05-18T00:19:39.696Z,15.38
2023-05-18T00:22:09.531Z,16.10
2023-05-18T00:24:39.179Z,14.40
2023-05-18T00:27:08.823Z,14.10
2023-05-18T00:29:38.491Z,14.80
2023-05-18T00:32:10.585Z,14.43
2023-05-18T00:34:40.245Z,15.73
2023-05-18T00:37:09.926Z,13.80
2023-05-18T00:39:39.541Z,15.05
2023-05-18T00:42:09.153Z,14.27
2023-05-18T00:44:38.807Z,13.90
2023-05-18T00:47:08.545Z,14.77
2023-05-18T00:49:38.185Z,14.07
2023-05-18T00:52:11.379Z,15.27
2023-05-18T00:54:41.075Z,14.23
2023-05-18T00:57:10.767Z,14.10
2023-05-18T00:59:41.213Z,13.30
2023-05-18T01:02:11.418Z,13.68
2023-05-18T01:04:43.090Z,13.50
2023-05-18T01:07:14.563Z,13.48
2023-05-18T01:09:44.454Z,14.25
2023-05-18T01:12:24.174Z,13.23
2023-05-18T01:15:12.624Z,12.50
2023-05-18T01:18:16.861Z,13.30
2023-05-18T01:20:51.539Z,14.50
2023-05-18T01:24:00.521Z,13.13
2023-05-18T01:26:34.851Z,13.23
2023-05-18T01:29:08.660Z,14.65
2023-05-18T01:31:38.647Z,14.35
2023-05-18T01:34:08.594Z,13.43
2023-05-18T01:36:38.321Z,13.15
2023-05-18T01:39:08.006Z,13.05
2023-05-18T01:41:52.798Z,13.73
2023-05-18T01:44:36.893Z,13.77
2023-05-18T01:47:14.147Z,13.10
2023-05-18T01:50:08.262Z,13.73
2023-05-18T01:52:44.399Z,12.25
2023-05-18T01:55:17.583Z,13.20
2023-05-18T01:57:50.372Z,11.70
2023-05-18T02:00:20.898Z,12.40
2023-05-18T02:02:51.217Z,12.68
2023-05-18T02:05:21.120Z,12.50
2023-05-18T02:07:51.138Z,12.48
2023-05-18T02:10:20.912Z,11.75
2023-05-18T02:12:54.198Z,13.00
2023-05-18T02:15:23.932Z,13.35
2023-05-18T02:17:53.599Z,11.60
2023-05-18T02:20:23.252Z,11.60
2023-05-18T02:22:52.949Z,11.88
2023-05-18T02:25:23.110Z,12.02
2023-05-18T02:27:54.383Z,11.88
2023-05-18T02:30:26.652Z,12.02
2023-05-18T02:32:56.955Z,13.05
2023-05-18T02:35:26.719Z,12.32
2023-05-18T02:37:57.532Z,12.02
2023-05-18T02:40:27.300Z,11.88
2023-05-18T02:42:59.438Z,12.23
2023-05-18T02:45:29.404Z,15.15
2023-05-18T02:47:59.296Z,11.32
2023-05-18T02:50:29.160Z,11.88
2023-05-18T02:52:59.022Z,12.20
2023-05-18T02:55:30.686Z,11.60
2023-05-18T02:58:01.620Z,11.10
2023-05-18T03:00:32.268Z,10.98
2023-05-18T03:03:05.935Z,10.90
2023-05-18T03:05:35.650Z,11.18
2023-05-18T03:08:05.478Z,10.27
2023-05-18T03:10:35.255Z,10.95
2023-05-18T03:13:08.126Z,10.68
2023-05-18T03:15:39.207Z,10.18
2023-05-18T03:18:09.135Z,11.38
2023-05-18T03:20:39.745Z,11.63
2023-05-18T03:23:09.379Z,10.98
2023-05-18T03:25:39.327Z,10.20
2023-05-18T03:28:09.629Z,11.60
2023-05-18T03:30:39.203Z,10.68
2023-05-18T03:33:08.935Z,10.45
2023-05-18T03:35:38.513Z,10.85
2023-05-18T03:38:08.365Z,10.93
2023-05-18T03:40:38.096Z,11.40
2023-05-18T03:43:07.967Z,11.63
2023-05-18T03:45:37.669Z,11.80
2023-05-18T03:48:07.888Z,11.85
2023-05-18T03:50:37.688Z,10.52
2023-05-18T03:53:07.260Z,11.27
2023-05-18T03:55:37.133Z,11.45
2023-05-18T03:58:06.670Z,11.18
2023-05-18T04:00:36.416Z,11.75
2023-05-18T04:03:06.432Z,11.70
2023-05-18T04:05:36.182Z,11.27
2023-05-18T04:08:05.784Z,11.43
2023-05-18T04:10:35.398Z,10.73
2023-05-18T04:13:04.936Z,10.35
2023-05-18T04:15:35.394Z,10.68
2023-05-18T04:18:05.222Z,10.60
2023-05-18T04:20:34.879Z,10.93
2023-05-18T04:23:05.186Z,11.20
2023-05-18T04:25:38.191Z,10.23
2023-05-18T04:28:08.094Z,12.55
2023-05-18T04:30:39.435Z,11.30
2023-05-18T04:33:09.081Z,11.32
2023-05-18T04:35:38.791Z,11.20
2023-05-18T04:38:08.347Z,10.85
2023-05-18T04:40:39.749Z,11.10
2023-05-18T04:43:10.037Z,10.52
2023-05-18T04:45:39.695Z,11.35
2023-05-18T04:48:09.402Z,10.57
2023-05-18T04:50:39.098Z,10.25
2023-05-18T04:53:10.778Z,11.30
2023-05-18T04:55:40.684Z,11.70
2023-05-18T04:58:11.990Z,11.00
2023-05-18T05:00:41.654Z,10.80
2023-05-18T05:03:13.728Z,10.73
2023-05-18T05:05:43.539Z,11.80
2023-05-18T05:08:13.580Z,10.23
2023-05-18T05:10:43.100Z,10.52
2023-05-18T05:13:12.825Z,10.35
2023-05-18T05:15:42.490Z,11.20
2023-05-18T05:18:12.285Z,11.40
2023-05-18T05:20:42.159Z,11.02
2023-05-18T05:23:11.843Z,11.10
2023-05-18T05:25:41.542Z,10.68
2023-05-18T05:28:11.105Z,11.43
2023-05-18T05:30:40.920Z,11.45
2023-05-18T05:33:10.570Z,10.20
2023-05-18T05:35:43.320Z,11.07
2023-05-18T05:38:13.312Z,11.23
2023-05-18T05:40:42.926Z,10.50
2023-05-18T05:43:12.614Z,10.63
2023-05-18T05:45:42.822Z,12.00
2023-05-18T05:48:13.870Z,10.80
2023-05-18T05:50:46.235Z,10.52
2023-05-18T05:53:19.491Z,11.00
2023-05-18T05:55:49.267Z,11.23
2023-05-18T05:58:19.007Z,11.25
2023-05-18T06:00:48.670Z,11.05
2023-05-18T06:03:18.432Z,11.40
2023-05-18T06:05:48.244Z,11.68
2023-05-18T06:08:18.675Z,10.63
2023-05-18T06:10:48.426Z,10.25
2023-05-18T06:13:18.658Z,10.45
2023-05-18T06:15:48.349Z,10.38
2023-05-18T06:18:18.040Z,11.38
2023-05-18T06:20:52.568Z,11.85
2023-05-18T06:23:25.456Z,11.10
2023-05-18T06:25:55.221Z,11.57
2023-05-18T06:28:25.066Z,10.70
2023-05-18T06:30:55.428Z,10.88
2023-05-18T06:33:25.488Z,11.10
2023-05-18T06:35:55.250Z,10.57
2023-05-18T06:38:24.860Z,10.27
2023-05-18T06:40:54.445Z,10.52
2023-05-18T06:43:24.076Z,9.43
2023-05-18T06:45:53.655Z,9.88
2023-05-18T06:48:25.667Z,9.77
2023-05-18T06:50:55.605Z,10.07
2023-05-18T06:53:25.363Z,10.25
2023-05-18T06:55:54.947Z,10.15
2023-05-18T06:58:25.505Z,10.70
2023-05-18T07:00:56.036Z,9.85
2023-05-18T07:03:25.764Z,9.57
2023-05-18T07:05:56.254Z,10.35
2023-05-18T07:08:30.003Z,10.82
2023-05-18T07:10:59.812Z,10.30
2023-05-18T07:13:29.407Z,10.35
2023-05-18T07:15:59.140Z,10.70
2023-05-18T07:18:28.992Z,11.13
2023-05-18T07:20:58.660Z,11.73
2023-05-18T07:23:30.146Z,10.35
2023-05-18T07:26:00.285Z,10.20
2023-05-18T07:28:29.935Z,10.32
2023-05-18T07:31:02.642Z,10.80
2023-05-18T07:33:32.245Z,10.27
2023-05-18T07:36:01.830Z,10.30
2023-05-18T07:38:31.614Z,10.85
2023-05-18T07:41:01.855Z,10.43
2023-05-18T07:43:31.384Z,10.93
2023-05-18T07:46:01.033Z,11.00
2023-05-18T07:48:33.605Z,11.13
2023-05-18T07:51:03.128Z,10.07
2023-05-18T07:53:32.897Z,10.57
2023-05-18T07:56:02.887Z,9.73
2023-05-18T07:58:32.821Z,10.60
2023-05-18T08:01:02.390Z,11.30
2023-05-18T08:03:32.128Z,11.50
2023-05-18T08:06:02.404Z,11.75
2023-05-18T08:08:32.152Z,11.75
2023-05-18T08:11:02.081Z,11.00
2023-05-18T08:13:33.893Z,11.73
2023-05-18T08:16:11.069Z,11.55
2023-05-18T08:18:42.026Z,11.43
2023-05-18T08:21:11.917Z,11.05
2023-05-18T08:23:44.094Z,11.73
2023-05-18T08:26:14.780Z,11.13
2023-05-18T08:28:45.336Z,11.05
2023-05-18T08:31:16.297Z,11.75
2023-05-18T08:33:46.355Z,11.20
2023-05-18T08:36:16.280Z,11.30
2023-05-18T08:38:46.051Z,12.35
2023-05-18T08:41:38.351Z,11.80
2023-05-18T08:44:31.673Z,11.55
2023-05-18T08:47:02.660Z,11.68
2023-05-18T08:49:33.881Z,13.27
2023-05-18T08:52:07.012Z,11.60
2023-05-18T08:54:42.515Z,11.32
2023-05-18T08:57:13.129Z,12.13
2023-05-18T08:59:44.694Z,11.98
2023-05-18T09:02:15.315Z,11.13
2023-05-18T09:04:46.624Z,11.68
2023-05-18T09:07:16.625Z,11.77
2023-05-18T09:09:48.635Z,12.32
2023-05-18T09:12:24.321Z,11.68
2023-05-18T09:14:56.657Z,12.73
2023-05-18T09:17:26.342Z,12.68
2023-05-18T09:19:58.501Z,12.02
2023-05-18T09:22:28.615Z,13.35
2023-05-18T09:25:01.205Z,10.85
2023-05-18T09:27:31.296Z,11.30
2023-05-18T09:30:04.096Z,11.90
2023-05-18T09:32:38.666Z,12.00
2023-05-18T09:35:09.944Z,12.40
2023-05-18T09:37:43.313Z,13.00
2023-05-18T09:40:13.482Z,12.30
2023-05-18T09:42:45.094Z,12.15
2023-05-18T09:45:25.362Z,11.80
2023-05-18T09:47:55.880Z,12.15
2023-05-18T09:50:28.947Z,11.93
2023-05-18T09:52:59.359Z,13.10
2023-05-18T09:55:29.365Z,11.85
2023-05-18T09:57:59.380Z,12.32
2023-05-18T10:00:29.026Z,11.57
2023-05-18T10:02:58.742Z,11.55
2023-05-18T10:05:35.468Z,12.82
2023-05-18T10:08:08.767Z,12.10
2023-05-18T10:10:42.365Z,11.85
2023-05-18T10:13:16.327Z,12.30
2023-05-18T10:15:58.720Z,13.40
2023-05-18T10:18:31.680Z,13.57
2023-05-18T10:21:03.324Z,12.40
2023-05-18T10:23:42.278Z,12.30
2023-05-18T10:26:12.796Z,11.90
2023-05-18T10:28:49.143Z,12.13
2023-05-18T10:31:19.965Z,13.43
2023-05-18T10:33:50.396Z,13.27
2023-05-18T10:36:20.744Z,12.15
2023-05-18T10:38:51.107Z,12.43
2023-05-18T10:41:24.523Z,11.80
2023-05-18T10:43:56.828Z,12.20
2023-05-18T10:46:28.455Z,12.00
2023-05-18T10:48:59.500Z,13.73
2023-05-18T10:51:34.247Z,13.63
2023-05-18T10:54:14.815Z,13.63
2023-05-18T10:56:49.576Z,13.85
2023-05-18T10:59:20.417Z,14.75
2023-05-18T11:01:52.818Z,14.15
2023-05-18T11:04:31.202Z,14.65
2023-05-18T11:07:04.744Z,15.05
2023-05-18T11:09:35.523Z,13.70
2023-05-18T11:12:05.449Z,13.55
2023-05-18T11:14:35.567Z,13.55
2023-05-18T11:17:27.028Z,13.93
2023-05-18T11:20:18.303Z,13.68
2023-05-18T11:22:54.912Z,13.43
2023-05-18T11:25:44.368Z,13.60
2023-05-18T11:28:15.770Z,13.70
2023-05-18T11:30:51.615Z,13.95
2023-05-18T11:33:32.138Z,14.35
2023-05-18T11:36:14.031Z,26.63
2023-05-18T11:38:57.683Z,22.98
2023-05-18T11:41:38.416Z,24.23
2023-05-18T11:44:18.972Z,21.63
2023-05-18T11:47:10.347Z,18.40
2023-05-18T11:49:47.461Z,16.67
2023-05-18T11:52:26.124Z,16.42
2023-05-18T11:55:02.909Z,16.02
2023-05-18T11:57:44.611Z,17.03
2023-05-18T12:00:14.864Z,16.20
2023-05-18T12:02:49.508Z,17.00
2023-05-18T12:05:19.847Z,19.05
2023-05-18T12:07:55.843Z,25.65
2023-05-18T12:10:25.889Z,16.85
2023-05-18T12:12:55.779Z,15.20
2023-05-18T12:15:26.482Z,14.82
2023-05-18T12:17:56.561Z,15.55
2023-05-18T12:20:32.823Z,15.70
2023-05-18T12:23:02.760Z,16.70
2023-05-18T12:25:33.246Z,15.52
2023-05-18T12:28:03.941Z,18.95
2023-05-18T12:30:36.915Z,18.20
2023-05-18T12:33:08.562Z,17.55
2023-05-18T12:35:38.470Z,15.63
2023-05-18T12:38:09.102Z,16.08
2023-05-18T12:40:48.221Z,15.30
2023-05-18T12:43:18.096Z,17.25
2023-05-18T12:45:50.524Z,18.35
2023-05-18T12:48:20.199Z,16.40
2023-05-18T12:50:51.980Z,16.88
2023-05-18T12:53:21.998Z,16.00
2023-05-18T12:56:01.426Z,17.35
2023-05-18T12:58:31.090Z,17.40
2023-05-18T13:01:00.847Z,18.23
2023-05-18T13:03:36.812Z,17.42
2023-05-18T13:06:08.396Z,19.33
2023-05-18T13:08:39.079Z,18.05
2023-05-18T13:11:16.529Z,17.45
2023-05-18T13:14:07.042Z,17.20
2023-05-18T13:16:41.152Z,17.05
2023-05-18T13:19:14.590Z,16.85
2023-05-18T13:21:44.380Z,16.48
2023-05-18T13:24:14.246Z,18.08
2023-05-18T13:26:44.059Z,17.33
2023-05-18T13:29:16.398Z,19.33
2023-05-18T13:31:46.315Z,22.23
2023-05-18T13:34:16.743Z,20.38
2023-05-18T13:36:48.590Z,17.85
2023-05-18T13:39:19.363Z,19.42
2023-05-18T13:41:48.964Z,18.25
2023-05-18T13:44:19.866Z,19.25
2023-05-18T13:46:49.537Z,19.73
2023-05-18T13:49:19.089Z,18.08
2023-05-18T13:51:49.796Z,18.98
2023-05-18T13:54:19.434Z,18.80
2023-05-18T13:56:50.406Z,18.63
2023-05-18T13:59:21.126Z,17.90
2023-05-18T14:01:51.300Z,17.20
2023-05-18T14:04:20.938Z,17.00
2023-05-18T14:06:50.588Z,17.70
2023-05-18T14:09:20.119Z,17.13
2023-05-18T14:11:51.033Z,17.52
2023-05-18T14:14:25.395Z,17.15
2023-05-18T14:16:55.729Z,16.60
2023-05-18T14:19:27.373Z,16.20
2023-05-18T14:21:57.142Z,18.00
2023-05-18T14:24:26.715Z,17.55
2023-05-18T14:26:56.347Z,17.05
2023-05-18T14:29:28.428Z,17.05
2023-05-18T14:31:58.222Z,16.02
2023-05-18T14:34:28.758Z,18.23
2023-05-18T14:36:58.363Z,16.27
2023-05-18T14:39:30.543Z,16.08
2023-05-18T14:42:00.239Z,16.48
2023-05-18T14:44:29.805Z,17.92
2023-05-18T14:46:59.597Z,17.08
2023-05-18T14:49:29.398Z,18.35
2023-05-18T14:52:01.341Z,17.23
2023-05-18T14:54:31.056Z,17.73
2023-05-18T14:57:01.306Z,16.02
2023-05-18T14:59:31.008Z,16.95
2023-05-18T15:02:00.720Z,17.13
2023-05-18T15:04:32.644Z,17.75
2023-05-18T15:07:03.707Z,16.48
2023-05-18T15:09:33.326Z,16.98
2023-05-18T15:12:03.073Z,16.85
2023-05-18T15:14:32.767Z,16.08
2023-05-18T15:17:02.613Z,16.35
2023-05-18T15:19:32.319Z,16.88
2023-05-18T15:22:01.938Z,17.02
2023-05-18T15:24:31.693Z,17.23
2023-05-18T15:27:01.378Z,16.98
2023-05-18T15:29:31.294Z,16.38
2023-05-18T15:32:01.263Z,17.08
2023-05-18T15:34:34.962Z,16.73
2023-05-18T15:37:07.361Z,17.67
2023-05-18T15:39:39.122Z,18.77
2023-05-18T15:42:09.062Z,17.50
2023-05-18T15:44:38.621Z,17.08
2023-05-18T15:47:08.382Z,17.65
2023-05-18T15:49:37.883Z,17.27
2023-05-18T15:52:07.750Z,17.35
2023-05-18T15:54:37.597Z,16.70
2023-05-18T15:57:08.824Z,17.52
2023-05-18T15:59:38.400Z,18.27
2023-05-18T16:02:08.166Z,17.45
2023-05-18T16:04:41.607Z,19.13
2023-05-18T16:07:11.258Z,17.15
2023-05-18T16:09:40.951Z,18.20
2023-05-18T16:12:11.034Z,17.92
2023-05-18T16:14:43.042Z,17.98
2023-05-18T16:17:12.727Z,20.70
2023-05-18T16:19:45.370Z,18.00
2023-05-18T16:22:14.984Z,18.95
2023-05-18T16:24:44.975Z,19.00
2023-05-18T16:27:14.757Z,18.50
2023-05-18T16:29:44.359Z,18.83
2023-05-18T16:32:14.204Z,19.13
2023-05-18T16:34:44.449Z,19.38
2023-05-18T16:37:14.181Z,19.70
2023-05-18T16:39:43.930Z,19.08
2023-05-18T16:42:14.029Z,20.20
2023-05-18T16:44:43.659Z,20.33
2023-05-18T16:47:13.255Z,18.58
2023-05-18T16:49:45.702Z,18.85
2023-05-18T16:52:17.413Z,19.05
2023-05-18T16:54:47.902Z,20.50
2023-05-18T16:57:17.537Z,19.10
2023-05-18T16:59:49.536Z,19.27
2023-05-18T17:02:19.680Z,19.23
2023-05-18T17:04:51.205Z,18.95
2023-05-18T17:07:20.861Z,20.27
2023-05-18T17:09:53.118Z,18.75
2023-05-18T17:12:22.750Z,19.70
2023-05-18T17:14:52.424Z,19.58
2023-05-18T17:17:22.253Z,19.73
2023-05-18T17:19:52.201Z,20.27
2023-05-18T17:22:22.044Z,18.90
2023-05-18T17:24:51.656Z,18.33
2023-05-18T17:27:30.199Z,19.38
2023-05-18T17:29:59.733Z,18.42
2023-05-18T17:32:29.443Z,19.35
2023-05-18T17:34:59.880Z,19.65
2023-05-18T17:37:32.340Z,19.15
2023-05-18T17:40:02.001Z,19.05
2023-05-18T17:42:31.634Z,19.90
2023-05-18T17:45:01.332Z,19.58
2023-05-18T17:47:30.923Z,19.13
2023-05-18T17:50:01.090Z,19.13
2023-05-18T17:52:30.759Z,18.10
2023-05-18T17:55:00.410Z,17.80
2023-05-18T17:57:31.488Z,17.83
2023-05-18T18:00:01.324Z,18.33
2023-05-18T18:02:31.084Z,17.77
2023-05-18T18:05:00.747Z,18.10
2023-05-18T18:07:30.441Z,17.80
2023-05-18T18:10:00.197Z,17.77
2023-05-18T18:12:29.878Z,17.55
2023-05-18T18:15:01.842Z,17.95
2023-05-18T18:17:31.512Z,18.00
2023-05-18T18:20:01.356Z,17.40
2023-05-18T18:22:31.489Z,16.73
2023-05-18T18:25:02.735Z,17.10
2023-05-18T18:27:32.407Z,18.45
2023-05-18T18:30:02.007Z,18.33
2023-05-18T18:32:31.938Z,18.20
2023-05-18T18:35:02.300Z,17.75
2023-05-18T18:37:34.701Z,17.58
2023-05-18T18:40:04.277Z,18.90
2023-05-18T18:42:33.793Z,18.25
2023-05-18T18:45:03.378Z,18.40
2023-05-18T18:47:33.007Z,17.27
2023-05-18T18:50:02.731Z,19.42
2023-05-18T18:52:35.042Z,18.45
2023-05-18T18:55:07.482Z,16.77
2023-05-18T18:57:37.041Z,19.17
2023-05-18T19:00:12.794Z,17.67
2023-05-18T19:02:43.520Z,18.33
2023-05-18T19:05:13.404Z,19.77
2023-05-18T19:07:43.172Z,17.52
2023-05-18T19:10:13.013Z,19.02
2023-05-18T19:12:45.347Z,18.55
2023-05-18T19:15:15.657Z,17.30
2023-05-18T19:17:53.751Z,18.83
2023-05-18T19:20:24.138Z,18.35
2023-05-18T19:22:55.160Z,18.50
2023-05-18T19:25:26.323Z,19.38
2023-05-18T19:27:56.190Z,17.98
2023-05-18T19:30:26.099Z,18.48
2023-05-18T19:32:56.084Z,18.80
2023-05-18T19:35:29.227Z,18.90
2023-05-18T19:37:59.112Z,19.50
2023-05-18T19:40:30.563Z,17.98
2023-05-18T19:43:01.331Z,19.98
2023-05-18T19:45:31.258Z,17.40
2023-05-18T19:48:04.476Z,18.42
2023-05-18T19:50:36.423Z,17.48
2023-05-18T19:53:06.052Z,17.98
2023-05-18T19:55:35.908Z,17.70
2023-05-18T19:58:08.369Z,18.08
2023-05-18T20:00:39.561Z,18.73
2023-05-18T20:03:11.067Z,17.70
2023-05-18T20:05:43.591Z,18.90
2023-05-18T20:08:14.230Z,19.38
2023-05-18T20:10:43.828Z,19.38
2023-05-18T20:13:13.582Z,19.65
2023-05-18T20:15:43.186Z,18.58
2023-05-18T20:18:12.830Z,17.55
2023-05-18T20:20:42.983Z,18.30
2023-05-18T20:23:13.280Z,18.00
2023-05-18T20:25:46.551Z,19.17
2023-05-18T20:28:17.828Z,19.65
2023-05-18T20:30:48.484Z,18.88
2023-05-18T20:33:19.360Z,18.70
2023-05-18T20:35:50.409Z,19.23
2023-05-18T20:38:20.085Z,18.63
2023-05-18T20:40:52.561Z,17.85
2023-05-18T20:43:24.702Z,18.27
2023-05-18T20:45:54.320Z,19.42
2023-05-18T20:48:28.281Z,18.95
2023-05-18T20:50:57.906Z,18.70
2023-05-18T20:53:28.016Z,18.73
2023-05-18T20:55:57.696Z,20.80
2023-05-18T20:58:28.005Z,18.75
2023-05-18T21:01:00.784Z,20.60
2023-05-18T21:03:32.054Z,19.83
2023-05-18T21:06:02.772Z,19.75
2023-05-18T21:08:32.516Z,18.83
2023-05-18T21:11:02.178Z,18.80
2023-05-18T21:13:31.961Z,18.00
2023-05-18T21:16:02.161Z,19.42
2023-05-18T21:18:31.848Z,18.83
2023-05-18T21:21:01.567Z,19.05
2023-05-18T21:23:31.547Z,18.42
2023-05-18T21:26:01.361Z,18.55
2023-05-18T21:28:30.945Z,18.52
2023-05-18T21:31:00.550Z,18.45
2023-05-18T21:33:30.212Z,18.88
2023-05-18T21:36:01.231Z,18.88
2023-05-18T21:38:31.025Z,19.35
2023-05-18T21:41:00.740Z,18.85
2023-05-18T21:43:30.350Z,19.45
2023-05-18T21:46:00.143Z,19.73
2023-05-18T21:48:37.210Z,20.10
2023-05-18T21:51:06.813Z,19.25
2023-05-18T21:53:36.385Z,19.77
2023-05-18T21:56:06.279Z,19.85
2023-05-18T21:58:35.842Z,19.42
2023-05-18T22:01:05.532Z,18.92
2023-05-18T22:03:35.239Z,18.75
2023-05-18T22:06:04.802Z,19.55
2023-05-18T22:08:37.948Z,18.35
2023-05-18T22:11:08.320Z,19.15
2023-05-18T22:13:37.999Z,19.70
2023-05-18T22:16:08.011Z,20.20
2023-05-18T22:18:37.736Z,19.98
2023-05-18T22:21:07.380Z,19.30
2023-05-18T22:23:37.165Z,20.80
2023-05-18T22:26:07.013Z,19.45
2023-05-18T22:28:36.796Z,20.13
2023-05-18T22:31:06.355Z,20.08
2023-05-18T22:33:36.236Z,20.23
2023-05-18T22:36:06.721Z,20.80
2023-05-18T22:38:36.301Z,20.92
2023-05-18T22:41:05.959Z,21.40
2023-05-18T22:43:35.501Z,21.58
2023-05-18T22:46:05.300Z,20.17
2023-05-18T22:48:36.428Z,21.73
2023-05-18T22:51:07.617Z,21.15
2023-05-18T22:53:37.268Z,21.80
2023-05-18T22:56:08.881Z,22.03
2023-05-18T22:58:38.494Z,21.80
2023-05-18T23:01:08.668Z,20.58
2023-05-18T23:03:38.240Z,20.75
2023-05-18T23:06:09.175Z,20.65
2023-05-18T23:08:39.211Z,22.10
2023-05-18T23:11:08.733Z,21.00
2023-05-18T23:13:39.204Z,22.50
2023-05-18T23:16:11.833Z,20.23
2023-05-18T23:18:41.524Z,21.75
2023-05-18T23:21:12.150Z,22.48
2023-05-18T23:23:41.700Z,21.55
2023-05-18T23:26:11.492Z,20.83
2023-05-18T23:28:41.205Z,21.80
2023-05-18T23:31:10.743Z,22.13
2023-05-18T23:33:40.699Z,21.63
2023-05-18T23:36:13.436Z,20.75
2023-05-18T23:38:45.131Z,20.65
2023-05-18T23:41:15.401Z,21.17
2023-05-18T23:43:45.225Z,20.85
2023-05-18T23:46:15.681Z,21.05
2023-05-18T23:48:45.591Z,21.83
2023-05-18T23:51:19.001Z,21.00
2023-05-18T23:53:50.254Z,20.45
2023-05-18T23:56:20.728Z,20.95
2023-05-18T23:58:50.816Z,21.73
